sensor_id;sensor_type;location;lat;lon;timestamp;temperature;humidity
19044;DHT22;9654;52.302;8.120;2023-08-06T00:01:24;13.90;99.90
19044;DHT22;9654;52.302;8.120;2023-08-06T00:03:51;13.90;99.90
19044;DHT22;9654;52.302;8.120;2023-08-06T00:06:17;13.90;99.90
19044;DHT22;9654;52.302;8.120;2023-08-06T00:08:44;13.90;99.90
19044;DHT22;9654;52.302;8.120;2023-08-06T00:11:12;13.90;99.90
19044;DHT22;9654;52.302;8.120;2023-08-06T00:13:39;13.90;99.90
19044;DHT22;9654;52.302;8.120;2023-08-06T00:16:10;13.90;99.90
19044;DHT22;9654;52.302;8.120;2023-08-06T00:18:37;13.90;99.90
19044;DHT22;9654;52.302;8.120;2023-08-06T00:21:04;13.90;99.90
19044;DHT22;9654;52.302;8.120;2023-08-06T00:23:31;13.90;99.90
19044;DHT22;9654;52.302;8.120;2023-08-06T00:25:57;13.90;99.90
19044;DHT22;9654;52.302;8.120;2023-08-06T00:28:25;14.00;99.90
19044;DHT22;9654;52.302;8.120;2023-08-06T00:30:53;14.00;99.90
19044;DHT22;9654;52.302;8.120;2023-08-06T00:33:20;14.00;99.90
19044;DHT22;9654;52.302;8.120;2023-08-06T00:35:47;13.90;99.90
19044;DHT22;9654;52.302;8.120;2023-08-06T00:38:14;14.00;99.90
19044;DHT22;9654;52.302;8.120;2023-08-06T00:40:40;13.90;99.90
19044;DHT22;9654;52.302;8.120;2023-08-06T00:43:07;13.90;99.90
19044;DHT22;9654;52.302;8.120;2023-08-06T00:45:36;13.90;99.90
19044;DHT22;9654;52.302;8.120;2023-08-06T00:48:05;13.90;99.90
19044;DHT22;9654;52.302;8.120;2023-08-06T00:50:32;13.90;99.90
19044;DHT22;9654;52.302;8.120;2023-08-06T00:52:59;13.90;99.90
19044;DHT22;9654;52.302;8.120;2023-08-06T00:55:26;13.80;99.90
19044;DHT22;9654;52.302;8.120;2023-08-06T00:57:53;13.80;99.90
19044;DHT22;9654;52.302;8.120;2023-08-06T01:00:22;13.90;99.90
19044;DHT22;9654;52.302;8.120;2023-08-06T01:02:50;13.90;99.90
19044;DHT22;9654;52.302;8.120;2023-08-06T01:05:17;13.90;99.90
19044;DHT22;9654;52.302;8.120;2023-08-06T01:07:55;13.90;99.90
19044;DHT22;9654;52.302;8.120;2023-08-06T01:10:32;13.90;99.90
19044;DHT22;9654;52.302;8.120;2023-08-06T01:13:08;13.90;99.90
19044;DHT22;9654;52.302;8.120;2023-08-06T01:15:41;13.90;99.90
19044;DHT22;9654;52.302;8.120;2023-08-06T01:18:12;13.90;99.90
19044;DHT22;9654;52.302;8.120;2023-08-06T01:20:40;13.90;99.90
19044;DHT22;9654;52.302;8.120;2023-08-06T01:23:07;13.90;99.90
19044;DHT22;9654;52.302;8.120;2023-08-06T01:25:37;13.90;99.90
19044;DHT22;9654;52.302;8.120;2023-08-06T01:28:13;13.90;99.90
19044;DHT22;9654;52.302;8.120;2023-08-06T01:30:42;13.90;99.90
19044;DHT22;9654;52.302;8.120;2023-08-06T01:33:15;13.90;99.90
19044;DHT22;9654;52.302;8.120;2023-08-06T01:35:44;13.90;99.90
19044;DHT22;9654;52.302;8.120;2023-08-06T01:38:12;13.90;99.90
19044;DHT22;9654;52.302;8.120;2023-08-06T01:40:39;13.80;99.90
19044;DHT22;9654;52.302;8.120;2023-08-06T01:43:05;13.80;99.90
19044;DHT22;9654;52.302;8.120;2023-08-06T01:45:32;13.80;99.90
19044;DHT22;9654;52.302;8.120;2023-08-06T01:47:59;13.80;99.90
19044;DHT22;9654;52.302;8.120;2023-08-06T01:50:26;13.80;99.90
19044;DHT22;9654;52.302;8.120;2023-08-06T01:52:54;13.80;99.90
19044;DHT22;9654;52.302;8.120;2023-08-06T01:55:21;13.80;99.90
19044;DHT22;9654;52.302;8.120;2023-08-06T01:57:47;13.70;99.90
19044;DHT22;9654;52.302;8.120;2023-08-06T02:00:14;13.70;99.90
19044;DHT22;9654;52.302;8.120;2023-08-06T02:02:41;13.70;99.90
19044;DHT22;9654;52.302;8.120;2023-08-06T02:05:08;13.80;99.90
19044;DHT22;9654;52.302;8.120;2023-08-06T02:07:34;13.80;99.90
19044;DHT22;9654;52.302;8.120;2023-08-06T02:10:03;13.80;99.90
19044;DHT22;9654;52.302;8.120;2023-08-06T02:12:30;13.70;99.90
19044;DHT22;9654;52.302;8.120;2023-08-06T02:14:56;13.80;99.90
19044;DHT22;9654;52.302;8.120;2023-08-06T02:17:23;13.80;99.90
19044;DHT22;9654;52.302;8.120;2023-08-06T02:19:50;13.80;99.90
19044;DHT22;9654;52.302;8.120;2023-08-06T02:22:17;13.80;99.90
19044;DHT22;9654;52.302;8.120;2023-08-06T02:24:43;13.80;99.90
19044;DHT22;9654;52.302;8.120;2023-08-06T02:27:11;13.80;99.90
19044;DHT22;9654;52.302;8.120;2023-08-06T02:29:40;13.80;99.90
19044;DHT22;9654;52.302;8.120;2023-08-06T02:32:07;13.80;99.90
19044;DHT22;9654;52.302;8.120;2023-08-06T02:34:34;13.80;99.90
19044;DHT22;9654;52.302;8.120;2023-08-06T02:37:00;13.80;99.90
19044;DHT22;9654;52.302;8.120;2023-08-06T02:39:27;13.80;99.90
19044;DHT22;9654;52.302;8.120;2023-08-06T02:41:54;13.80;99.90
19044;DHT22;9654;52.302;8.120;2023-08-06T02:44:22;13.70;99.90
19044;DHT22;9654;52.302;8.120;2023-08-06T02:46:49;13.70;99.90
19044;DHT22;9654;52.302;8.120;2023-08-06T02:49:16;13.70;99.90
19044;DHT22;9654;52.302;8.120;2023-08-06T02:51:44;13.70;99.90
19044;DHT22;9654;52.302;8.120;2023-08-06T02:54:11;13.60;99.90
19044;DHT22;9654;52.302;8.120;2023-08-06T02:56:38;13.60;99.90
19044;DHT22;9654;52.302;8.120;2023-08-06T02:59:05;13.60;99.90
19044;DHT22;9654;52.302;8.120;2023-08-06T03:01:33;13.60;99.90
19044;DHT22;9654;52.302;8.120;2023-08-06T03:04:01;13.60;99.90
19044;DHT22;9654;52.302;8.120;2023-08-06T03:06:28;13.50;99.90
19044;DHT22;9654;52.302;8.120;2023-08-06T03:08:55;13.50;99.90
19044;DHT22;9654;52.302;8.120;2023-08-06T03:11:22;13.50;99.90
19044;DHT22;9654;52.302;8.120;2023-08-06T03:13:48;13.40;99.90
19044;DHT22;9654;52.302;8.120;2023-08-06T03:16:15;13.40;99.90
19044;DHT22;9654;52.302;8.120;2023-08-06T03:18:43;13.30;99.90
19044;DHT22;9654;52.302;8.120;2023-08-06T03:21:10;13.30;99.90
19044;DHT22;9654;52.302;8.120;2023-08-06T03:23:37;13.30;99.90
19044;DHT22;9654;52.302;8.120;2023-08-06T03:26:04;13.20;99.90
19044;DHT22;9654;52.302;8.120;2023-08-06T03:28:30;13.20;99.90
19044;DHT22;9654;52.302;8.120;2023-08-06T03:31:01;13.10;99.90
19044;DHT22;9654;52.302;8.120;2023-08-06T03:33:27;13.10;99.90
19044;DHT22;9654;52.302;8.120;2023-08-06T03:35:56;13.10;99.90
19044;DHT22;9654;52.302;8.120;2023-08-06T03:38:22;13.10;99.90
19044;DHT22;9654;52.302;8.120;2023-08-06T03:40:49;13.00;99.90
19044;DHT22;9654;52.302;8.120;2023-08-06T03:43:16;13.00;99.90
19044;DHT22;9654;52.302;8.120;2023-08-06T03:45:43;12.90;99.90
19044;DHT22;9654;52.302;8.120;2023-08-06T03:48:10;12.90;99.90
19044;DHT22;9654;52.302;8.120;2023-08-06T03:50:37;12.90;99.90
19044;DHT22;9654;52.302;8.120;2023-08-06T03:53:05;13.00;99.90
19044;DHT22;9654;52.302;8.120;2023-08-06T03:55:32;13.00;99.90
19044;DHT22;9654;52.302;8.120;2023-08-06T03:57:59;13.00;99.90
19044;DHT22;9654;52.302;8.120;2023-08-06T04:00:26;13.00;99.90
19044;DHT22;9654;52.302;8.120;2023-08-06T04:02:52;13.10;99.90
19044;DHT22;9654;52.302;8.120;2023-08-06T04:05:19;13.10;99.90
19044;DHT22;9654;52.302;8.120;2023-08-06T04:07:46;13.10;99.90
19044;DHT22;9654;52.302;8.120;2023-08-06T04:10:14;13.10;99.90
19044;DHT22;9654;52.302;8.120;2023-08-06T04:12:41;13.10;99.90
19044;DHT22;9654;52.302;8.120;2023-08-06T04:15:08;13.20;99.90
19044;DHT22;9654;52.302;8.120;2023-08-06T04:17:35;13.20;99.90
19044;DHT22;9654;52.302;8.120;2023-08-06T04:20:02;13.20;99.90
19044;DHT22;9654;52.302;8.120;2023-08-06T04:22:29;13.20;99.90
19044;DHT22;9654;52.302;8.120;2023-08-06T04:24:56;13.30;99.90
19044;DHT22;9654;52.302;8.120;2023-08-06T04:27:24;13.30;99.90
19044;DHT22;9654;52.302;8.120;2023-08-06T04:29:51;13.30;99.90
19044;DHT22;9654;52.302;8.120;2023-08-06T04:32:17;13.30;99.90
19044;DHT22;9654;52.302;8.120;2023-08-06T04:34:45;13.30;99.90
19044;DHT22;9654;52.302;8.120;2023-08-06T04:37:12;13.40;99.90
19044;DHT22;9654;52.302;8.120;2023-08-06T04:39:39;13.40;99.90
19044;DHT22;9654;52.302;8.120;2023-08-06T04:42:06;13.50;99.90
19044;DHT22;9654;52.302;8.120;2023-08-06T04:44:34;13.50;99.90
19044;DHT22;9654;52.302;8.120;2023-08-06T04:47:01;13.60;99.90
19044;DHT22;9654;52.302;8.120;2023-08-06T04:49:27;13.60;99.90
19044;DHT22;9654;52.302;8.120;2023-08-06T04:51:54;13.70;99.90
19044;DHT22;9654;52.302;8.120;2023-08-06T04:54:21;13.70;99.90
19044;DHT22;9654;52.302;8.120;2023-08-06T04:56:48;13.70;99.90
19044;DHT22;9654;52.302;8.120;2023-08-06T04:59:14;13.70;99.90
19044;DHT22;9654;52.302;8.120;2023-08-06T05:01:42;13.80;99.90
19044;DHT22;9654;52.302;8.120;2023-08-06T05:04:09;13.80;99.90
19044;DHT22;9654;52.302;8.120;2023-08-06T05:06:36;13.80;99.90
19044;DHT22;9654;52.302;8.120;2023-08-06T05:09:04;13.80;99.90
19044;DHT22;9654;52.302;8.120;2023-08-06T05:11:31;13.90;99.90
19044;DHT22;9654;52.302;8.120;2023-08-06T05:13:58;13.90;99.90
19044;DHT22;9654;52.302;8.120;2023-08-06T05:16:25;13.90;99.90
19044;DHT22;9654;52.302;8.120;2023-08-06T05:18:53;13.90;99.90
19044;DHT22;9654;52.302;8.120;2023-08-06T05:21:19;13.90;99.90
19044;DHT22;9654;52.302;8.120;2023-08-06T05:23:46;13.90;99.90
19044;DHT22;9654;52.302;8.120;2023-08-06T05:26:13;13.90;99.90
19044;DHT22;9654;52.302;8.120;2023-08-06T05:28:40;14.00;99.90
19044;DHT22;9654;52.302;8.120;2023-08-06T05:31:07;14.00;99.90
19044;DHT22;9654;52.302;8.120;2023-08-06T05:33:34;14.00;99.90
19044;DHT22;9654;52.302;8.120;2023-08-06T05:36:02;14.00;99.90
19044;DHT22;9654;52.302;8.120;2023-08-06T05:38:29;14.10;99.90
19044;DHT22;9654;52.302;8.120;2023-08-06T05:40:56;14.20;99.90
19044;DHT22;9654;52.302;8.120;2023-08-06T05:43:23;14.20;99.90
19044;DHT22;9654;52.302;8.120;2023-08-06T05:45:50;14.20;99.90
19044;DHT22;9654;52.302;8.120;2023-08-06T05:48:16;14.20;99.90
19044;DHT22;9654;52.302;8.120;2023-08-06T05:50:43;14.20;99.90
19044;DHT22;9654;52.302;8.120;2023-08-06T05:53:11;14.30;99.90
19044;DHT22;9654;52.302;8.120;2023-08-06T05:55:38;14.30;99.90
19044;DHT22;9654;52.302;8.120;2023-08-06T05:58:05;14.40;99.90
19044;DHT22;9654;52.302;8.120;2023-08-06T06:00:32;14.50;99.90
19044;DHT22;9654;52.302;8.120;2023-08-06T06:03:00;14.50;99.90
19044;DHT22;9654;52.302;8.120;2023-08-06T06:05:27;14.60;99.90
19044;DHT22;9654;52.302;8.120;2023-08-06T06:07:53;14.70;99.90
19044;DHT22;9654;52.302;8.120;2023-08-06T06:10:22;14.80;99.90
19044;DHT22;9654;52.302;8.120;2023-08-06T06:12:48;14.90;99.90
19044;DHT22;9654;52.302;8.120;2023-08-06T06:15:15;14.90;99.90
19044;DHT22;9654;52.302;8.120;2023-08-06T06:17:42;15.00;99.90
19044;DHT22;9654;52.302;8.120;2023-08-06T06:20:09;15.10;99.90
19044;DHT22;9654;52.302;8.120;2023-08-06T06:22:36;15.20;99.90
19044;DHT22;9654;52.302;8.120;2023-08-06T06:25:03;15.20;99.90
19044;DHT22;9654;52.302;8.120;2023-08-06T06:27:31;15.10;99.90
19044;DHT22;9654;52.302;8.120;2023-08-06T06:29:58;15.00;99.90
19044;DHT22;9654;52.302;8.120;2023-08-06T06:32:25;15.00;99.90
19044;DHT22;9654;52.302;8.120;2023-08-06T06:34:52;15.00;99.90
19044;DHT22;9654;52.302;8.120;2023-08-06T06:37:19;15.20;99.90
19044;DHT22;9654;52.302;8.120;2023-08-06T06:39:45;15.40;99.90
19044;DHT22;9654;52.302;8.120;2023-08-06T06:42:12;15.50;99.90
19044;DHT22;9654;52.302;8.120;2023-08-06T06:44:41;15.70;99.90
19044;DHT22;9654;52.302;8.120;2023-08-06T06:47:08;15.90;99.90
19044;DHT22;9654;52.302;8.120;2023-08-06T06:49:35;16.10;99.90
19044;DHT22;9654;52.302;8.120;2023-08-06T06:52:02;16.20;99.90
19044;DHT22;9654;52.302;8.120;2023-08-06T06:54:29;16.30;99.90
19044;DHT22;9654;52.302;8.120;2023-08-06T06:56:55;16.30;99.90
19044;DHT22;9654;52.302;8.120;2023-08-06T06:59:22;16.50;99.90
19044;DHT22;9654;52.302;8.120;2023-08-06T07:01:50;16.60;99.90
19044;DHT22;9654;52.302;8.120;2023-08-06T07:04:17;16.70;99.90
19044;DHT22;9654;52.302;8.120;2023-08-06T07:06:44;16.80;99.90
19044;DHT22;9654;52.302;8.120;2023-08-06T07:09:10;16.90;99.90
19044;DHT22;9654;52.302;8.120;2023-08-06T07:11:37;17.00;99.90
19044;DHT22;9654;52.302;8.120;2023-08-06T07:14:04;17.00;99.90
19044;DHT22;9654;52.302;8.120;2023-08-06T07:16:31;16.90;99.90
19044;DHT22;9654;52.302;8.120;2023-08-06T07:19:00;16.90;99.90
19044;DHT22;9654;52.302;8.120;2023-08-06T07:21:27;17.00;99.90
19044;DHT22;9654;52.302;8.120;2023-08-06T07:23:54;17.10;99.90
19044;DHT22;9654;52.302;8.120;2023-08-06T07:26:21;17.20;99.90
19044;DHT22;9654;52.302;8.120;2023-08-06T07:28:48;17.30;99.90
19044;DHT22;9654;52.302;8.120;2023-08-06T07:31:15;17.40;99.90
19044;DHT22;9654;52.302;8.120;2023-08-06T07:33:41;17.40;99.90
19044;DHT22;9654;52.302;8.120;2023-08-06T07:36:11;17.50;99.90
19044;DHT22;9654;52.302;8.120;2023-08-06T07:38:39;17.80;99.90
19044;DHT22;9654;52.302;8.120;2023-08-06T07:41:05;17.90;99.90
19044;DHT22;9654;52.302;8.120;2023-08-06T07:43:32;18.00;99.90
19044;DHT22;9654;52.302;8.120;2023-08-06T07:46:01;18.00;99.90
19044;DHT22;9654;52.302;8.120;2023-08-06T07:48:28;18.10;99.90
19044;DHT22;9654;52.302;8.120;2023-08-06T07:50:55;18.30;99.90
19044;DHT22;9654;52.302;8.120;2023-08-06T07:53:24;18.30;99.90
19044;DHT22;9654;52.302;8.120;2023-08-06T07:55:53;18.60;99.90
19044;DHT22;9654;52.302;8.120;2023-08-06T07:58:20;18.70;99.90
19044;DHT22;9654;52.302;8.120;2023-08-06T08:00:47;18.80;99.90
19044;DHT22;9654;52.302;8.120;2023-08-06T08:03:15;18.70;99.90
19044;DHT22;9654;52.302;8.120;2023-08-06T08:05:42;18.70;99.90
19044;DHT22;9654;52.302;8.120;2023-08-06T08:08:18;18.80;99.90
19044;DHT22;9654;52.302;8.120;2023-08-06T08:10:46;18.90;99.90
19044;DHT22;9654;52.302;8.120;2023-08-06T08:13:14;18.90;99.90
19044;DHT22;9654;52.302;8.120;2023-08-06T08:15:40;19.10;99.90
19044;DHT22;9654;52.302;8.120;2023-08-06T08:18:07;19.40;99.90
19044;DHT22;9654;52.302;8.120;2023-08-06T08:20:34;19.70;99.90
19044;DHT22;9654;52.302;8.120;2023-08-06T08:23:01;19.90;99.90
19044;DHT22;9654;52.302;8.120;2023-08-06T08:25:28;20.00;99.90
19044;DHT22;9654;52.302;8.120;2023-08-06T08:27:58;20.00;99.90
19044;DHT22;9654;52.302;8.120;2023-08-06T08:30:25;20.10;99.90
19044;DHT22;9654;52.302;8.120;2023-08-06T08:32:52;19.90;99.90
19044;DHT22;9654;52.302;8.120;2023-08-06T08:35:19;19.70;99.90
19044;DHT22;9654;52.302;8.120;2023-08-06T08:37:45;19.60;99.90
19044;DHT22;9654;52.302;8.120;2023-08-06T08:40:14;19.40;99.90
19044;DHT22;9654;52.302;8.120;2023-08-06T08:42:41;19.40;99.90
19044;DHT22;9654;52.302;8.120;2023-08-06T08:45:13;19.30;99.90
19044;DHT22;9654;52.302;8.120;2023-08-06T08:47:40;19.30;99.90
19044;DHT22;9654;52.302;8.120;2023-08-06T08:50:09;19.30;99.90
19044;DHT22;9654;52.302;8.120;2023-08-06T08:52:38;19.50;99.90
19044;DHT22;9654;52.302;8.120;2023-08-06T08:55:24;19.70;99.90
19044;DHT22;9654;52.302;8.120;2023-08-06T08:57:52;19.90;99.90
19044;DHT22;9654;52.302;8.120;2023-08-06T09:00:20;20.00;99.90
19044;DHT22;9654;52.302;8.120;2023-08-06T09:02:47;20.00;99.90
19044;DHT22;9654;52.302;8.120;2023-08-06T09:05:15;20.00;99.90
19044;DHT22;9654;52.302;8.120;2023-08-06T09:07:43;19.90;99.90
19044;DHT22;9654;52.302;8.120;2023-08-06T09:10:14;19.80;99.90
19044;DHT22;9654;52.302;8.120;2023-08-06T09:12:43;19.70;99.90
19044;DHT22;9654;52.302;8.120;2023-08-06T09:15:11;19.70;99.90
19044;DHT22;9654;52.302;8.120;2023-08-06T09:17:40;19.70;99.90
19044;DHT22;9654;52.302;8.120;2023-08-06T09:20:11;19.70;99.90
19044;DHT22;9654;52.302;8.120;2023-08-06T09:22:38;19.70;99.90
19044;DHT22;9654;52.302;8.120;2023-08-06T09:25:07;19.70;99.90
19044;DHT22;9654;52.302;8.120;2023-08-06T09:27:35;19.70;99.90
19044;DHT22;9654;52.302;8.120;2023-08-06T09:30:04;19.70;99.90
19044;DHT22;9654;52.302;8.120;2023-08-06T09:32:45;19.80;99.90
19044;DHT22;9654;52.302;8.120;2023-08-06T09:35:15;19.80;99.90
19044;DHT22;9654;52.302;8.120;2023-08-06T09:37:43;19.80;99.90
19044;DHT22;9654;52.302;8.120;2023-08-06T09:40:24;19.70;99.90
19044;DHT22;9654;52.302;8.120;2023-08-06T09:42:51;19.70;99.90
19044;DHT22;9654;52.302;8.120;2023-08-06T09:45:18;19.80;99.90
19044;DHT22;9654;52.302;8.120;2023-08-06T09:47:48;19.80;99.90
19044;DHT22;9654;52.302;8.120;2023-08-06T09:50:17;19.80;99.90
19044;DHT22;9654;52.302;8.120;2023-08-06T09:52:45;19.80;99.90
19044;DHT22;9654;52.302;8.120;2023-08-06T09:55:12;19.90;99.90
19044;DHT22;9654;52.302;8.120;2023-08-06T09:57:40;19.90;99.90
19044;DHT22;9654;52.302;8.120;2023-08-06T10:00:09;19.90;99.90
19044;DHT22;9654;52.302;8.120;2023-08-06T10:02:38;20.00;99.90
19044;DHT22;9654;52.302;8.120;2023-08-06T10:05:08;20.00;99.90
19044;DHT22;9654;52.302;8.120;2023-08-06T10:07:35;20.00;89.60
19044;DHT22;9654;52.302;8.120;2023-08-06T10:10:02;20.00;1.00
19044;DHT22;9654;52.302;8.120;2023-08-06T10:12:32;20.00;1.00
19044;DHT22;9654;52.302;8.120;2023-08-06T10:15:04;20.10;1.00
19044;DHT22;9654;52.302;8.120;2023-08-06T10:17:33;20.10;1.00
19044;DHT22;9654;52.302;8.120;2023-08-06T10:20:02;20.30;1.00
19044;DHT22;9654;52.302;8.120;2023-08-06T10:22:33;20.40;1.00
19044;DHT22;9654;52.302;8.120;2023-08-06T10:25:02;20.60;1.00
19044;DHT22;9654;52.302;8.120;2023-08-06T10:27:33;20.70;1.00
19044;DHT22;9654;52.302;8.120;2023-08-06T10:30:22;20.80;1.00
19044;DHT22;9654;52.302;8.120;2023-08-06T10:32:49;20.90;1.00
19044;DHT22;9654;52.302;8.120;2023-08-06T10:35:30;21.10;99.90
19044;DHT22;9654;52.302;8.120;2023-08-06T10:38:05;21.20;99.90
19044;DHT22;9654;52.302;8.120;2023-08-06T10:40:32;21.30;99.90
19044;DHT22;9654;52.302;8.120;2023-08-06T10:43:00;21.50;99.90
19044;DHT22;9654;52.302;8.120;2023-08-06T10:45:27;21.50;1.00
19044;DHT22;9654;52.302;8.120;2023-08-06T10:47:56;21.50;1.00
19044;DHT22;9654;52.302;8.120;2023-08-06T10:50:23;21.40;1.00
19044;DHT22;9654;52.302;8.120;2023-08-06T10:52:50;21.30;1.00
19044;DHT22;9654;52.302;8.120;2023-08-06T10:55:26;21.30;1.00
19044;DHT22;9654;52.302;8.120;2023-08-06T10:57:54;21.30;71.60
19044;DHT22;9654;52.302;8.120;2023-08-06T11:00:22;21.20;1.00
19044;DHT22;9654;52.302;8.120;2023-08-06T11:02:48;21.00;99.90
19044;DHT22;9654;52.302;8.120;2023-08-06T11:05:15;20.90;99.90
19044;DHT22;9654;52.302;8.120;2023-08-06T11:07:42;20.80;1.00
19044;DHT22;9654;52.302;8.120;2023-08-06T11:10:10;20.70;99.90
19044;DHT22;9654;52.302;8.120;2023-08-06T11:12:38;20.70;26.10
19044;DHT22;9654;52.302;8.120;2023-08-06T11:15:06;20.60;63.40
19044;DHT22;9654;52.302;8.120;2023-08-06T11:17:34;20.60;1.00
19044;DHT22;9654;52.302;8.120;2023-08-06T11:20:02;20.50;1.00
19044;DHT22;9654;52.302;8.120;2023-08-06T11:22:29;20.60;99.90
19044;DHT22;9654;52.302;8.120;2023-08-06T11:24:57;20.50;1.00
19044;DHT22;9654;52.302;8.120;2023-08-06T11:27:26;20.50;1.00
19044;DHT22;9654;52.302;8.120;2023-08-06T11:29:55;20.50;1.00
19044;DHT22;9654;52.302;8.120;2023-08-06T11:32:22;20.60;1.00
19044;DHT22;9654;52.302;8.120;2023-08-06T11:34:50;20.60;1.00
19044;DHT22;9654;52.302;8.120;2023-08-06T11:37:20;20.50;1.00
19044;DHT22;9654;52.302;8.120;2023-08-06T11:39:49;20.40;1.00
19044;DHT22;9654;52.302;8.120;2023-08-06T11:42:16;20.30;1.00
19044;DHT22;9654;52.302;8.120;2023-08-06T11:44:43;20.30;1.00
19044;DHT22;9654;52.302;8.120;2023-08-06T11:47:14;20.30;1.00
19044;DHT22;9654;52.302;8.120;2023-08-06T11:49:43;20.40;1.00
19044;DHT22;9654;52.302;8.120;2023-08-06T11:52:14;20.50;1.00
19044;DHT22;9654;52.302;8.120;2023-08-06T11:54:41;20.70;1.00
19044;DHT22;9654;52.302;8.120;2023-08-06T11:57:09;20.90;1.00
19044;DHT22;9654;52.302;8.120;2023-08-06T11:59:37;21.00;1.00
19044;DHT22;9654;52.302;8.120;2023-08-06T12:02:05;21.10;99.90
19044;DHT22;9654;52.302;8.120;2023-08-06T12:04:57;21.20;1.00
19044;DHT22;9654;52.302;8.120;2023-08-06T12:07:27;21.30;1.00
19044;DHT22;9654;52.302;8.120;2023-08-06T12:09:53;21.40;1.00
19044;DHT22;9654;52.302;8.120;2023-08-06T12:12:20;21.50;99.90
19044;DHT22;9654;52.302;8.120;2023-08-06T12:14:47;21.50;99.90
19044;DHT22;9654;52.302;8.120;2023-08-06T12:17:14;21.60;1.00
19044;DHT22;9654;52.302;8.120;2023-08-06T12:19:44;21.40;1.00
19044;DHT22;9654;52.302;8.120;2023-08-06T12:22:10;21.40;1.00
19044;DHT22;9654;52.302;8.120;2023-08-06T12:24:38;21.30;99.90
19044;DHT22;9654;52.302;8.120;2023-08-06T12:27:05;21.30;99.90
19044;DHT22;9654;52.302;8.120;2023-08-06T12:29:32;21.30;99.90
19044;DHT22;9654;52.302;8.120;2023-08-06T12:31:59;21.30;99.90
19044;DHT22;9654;52.302;8.120;2023-08-06T12:34:26;21.40;1.00
19044;DHT22;9654;52.302;8.120;2023-08-06T12:36:54;21.50;99.90
19044;DHT22;9654;52.302;8.120;2023-08-06T12:39:20;21.70;1.00
19044;DHT22;9654;52.302;8.120;2023-08-06T12:41:47;21.80;27.80
19044;DHT22;9654;52.302;8.120;2023-08-06T12:44:14;22.00;1.00
19044;DHT22;9654;52.302;8.120;2023-08-06T12:46:41;22.30;1.00
19044;DHT22;9654;52.302;8.120;2023-08-06T12:49:07;22.40;1.00
19044;DHT22;9654;52.302;8.120;2023-08-06T12:51:34;22.40;1.00
19044;DHT22;9654;52.302;8.120;2023-08-06T12:54:02;22.50;99.90
19044;DHT22;9654;52.302;8.120;2023-08-06T12:56:29;22.60;1.00
19044;DHT22;9654;52.302;8.120;2023-08-06T12:58:56;22.50;1.00
19044;DHT22;9654;52.302;8.120;2023-08-06T13:01:23;22.30;1.00
19044;DHT22;9654;52.302;8.120;2023-08-06T13:03:49;22.20;99.90
19044;DHT22;9654;52.302;8.120;2023-08-06T13:06:16;22.30;65.20
19044;DHT22;9654;52.302;8.120;2023-08-06T13:08:43;22.40;99.90
19044;DHT22;9654;52.302;8.120;2023-08-06T13:11:11;22.40;1.00
19044;DHT22;9654;52.302;8.120;2023-08-06T13:13:38;22.30;99.90
19044;DHT22;9654;52.302;8.120;2023-08-06T13:16:05;22.20;83.00
19044;DHT22;9654;52.302;8.120;2023-08-06T13:18:31;22.20;1.00
19044;DHT22;9654;52.302;8.120;2023-08-06T13:20:58;22.00;59.40
19044;DHT22;9654;52.302;8.120;2023-08-06T13:23:25;21.70;99.90
19044;DHT22;9654;52.302;8.120;2023-08-06T13:25:52;21.40;99.90
19044;DHT22;9654;52.302;8.120;2023-08-06T13:28:20;20.90;1.00
19044;DHT22;9654;52.302;8.120;2023-08-06T13:30:46;20.50;1.00
19044;DHT22;9654;52.302;8.120;2023-08-06T13:33:13;20.10;1.00
19044;DHT22;9654;52.302;8.120;2023-08-06T13:35:40;19.90;1.00
19044;DHT22;9654;52.302;8.120;2023-08-06T13:38:07;19.80;1.10
19044;DHT22;9654;52.302;8.120;2023-08-06T13:40:34;19.70;6.20
19044;DHT22;9654;52.302;8.120;2023-08-06T13:43:00;19.60;46.70
19044;DHT22;9654;52.302;8.120;2023-08-06T13:45:28;19.60;76.20
19044;DHT22;9654;52.302;8.120;2023-08-06T13:47:56;19.60;72.40
19044;DHT22;9654;52.302;8.120;2023-08-06T13:50:23;19.50;93.00
19044;DHT22;9654;52.302;8.120;2023-08-06T13:52:51;19.40;99.90
19044;DHT22;9654;52.302;8.120;2023-08-06T13:55:21;19.40;75.60
19044;DHT22;9654;52.302;8.120;2023-08-06T13:57:47;19.30;99.90
19044;DHT22;9654;52.302;8.120;2023-08-06T14:00:14;19.30;92.30
19044;DHT22;9654;52.302;8.120;2023-08-06T14:02:42;19.30;67.80
19044;DHT22;9654;52.302;8.120;2023-08-06T14:05:10;19.20;19.90
19044;DHT22;9654;52.302;8.120;2023-08-06T14:07:37;19.30;6.90
19044;DHT22;9654;52.302;8.120;2023-08-06T14:10:04;19.30;1.00
19044;DHT22;9654;52.302;8.120;2023-08-06T14:12:31;19.30;1.00
19044;DHT22;9654;52.302;8.120;2023-08-06T14:14:58;19.20;1.00
19044;DHT22;9654;52.302;8.120;2023-08-06T14:17:25;19.20;49.20
19044;DHT22;9654;52.302;8.120;2023-08-06T14:19:54;19.10;79.10
19044;DHT22;9654;52.302;8.120;2023-08-06T14:22:21;19.20;95.10
19044;DHT22;9654;52.302;8.120;2023-08-06T14:24:48;19.00;99.90
19044;DHT22;9654;52.302;8.120;2023-08-06T14:27:14;19.00;99.90
19044;DHT22;9654;52.302;8.120;2023-08-06T14:29:41;19.00;99.90
19044;DHT22;9654;52.302;8.120;2023-08-06T14:32:08;19.00;99.90
19044;DHT22;9654;52.302;8.120;2023-08-06T14:34:35;19.10;99.90
19044;DHT22;9654;52.302;8.120;2023-08-06T14:37:03;19.20;99.90
19044;DHT22;9654;52.302;8.120;2023-08-06T14:39:30;19.20;99.90
19044;DHT22;9654;52.302;8.120;2023-08-06T14:41:56;19.10;99.90
19044;DHT22;9654;52.302;8.120;2023-08-06T14:44:23;19.10;99.90
19044;DHT22;9654;52.302;8.120;2023-08-06T14:46:50;19.10;99.90
19044;DHT22;9654;52.302;8.120;2023-08-06T14:49:17;19.10;99.90
19044;DHT22;9654;52.302;8.120;2023-08-06T14:51:43;19.00;99.90
19044;DHT22;9654;52.302;8.120;2023-08-06T14:54:12;19.10;99.90
19044;DHT22;9654;52.302;8.120;2023-08-06T14:56:38;19.10;99.90
19044;DHT22;9654;52.302;8.120;2023-08-06T14:59:05;19.10;99.90
19044;DHT22;9654;52.302;8.120;2023-08-06T15:01:32;19.20;99.90
19044;DHT22;9654;52.302;8.120;2023-08-06T15:03:59;19.30;99.90
19044;DHT22;9654;52.302;8.120;2023-08-06T15:06:25;19.40;99.90
19044;DHT22;9654;52.302;8.120;2023-08-06T15:08:52;19.40;99.90
19044;DHT22;9654;52.302;8.120;2023-08-06T15:11:24;19.40;99.90
19044;DHT22;9654;52.302;8.120;2023-08-06T15:13:51;19.40;99.90
19044;DHT22;9654;52.302;8.120;2023-08-06T15:16:18;19.30;99.90
19044;DHT22;9654;52.302;8.120;2023-08-06T15:18:45;19.40;99.90
19044;DHT22;9654;52.302;8.120;2023-08-06T15:21:12;19.50;99.90
19044;DHT22;9654;52.302;8.120;2023-08-06T15:23:38;19.50;99.90
19044;DHT22;9654;52.302;8.120;2023-08-06T15:26:05;19.50;99.90
19044;DHT22;9654;52.302;8.120;2023-08-06T15:28:33;19.40;99.90
19044;DHT22;9654;52.302;8.120;2023-08-06T15:31:01;19.40;99.90
19044;DHT22;9654;52.302;8.120;2023-08-06T15:33:29;19.20;99.90
19044;DHT22;9654;52.302;8.120;2023-08-06T15:35:56;19.20;99.90
19044;DHT22;9654;52.302;8.120;2023-08-06T15:38:23;19.10;99.90
19044;DHT22;9654;52.302;8.120;2023-08-06T15:40:50;19.10;99.90
19044;DHT22;9654;52.302;8.120;2023-08-06T15:43:17;19.10;99.90
19044;DHT22;9654;52.302;8.120;2023-08-06T15:45:45;19.00;99.90
19044;DHT22;9654;52.302;8.120;2023-08-06T15:48:11;19.00;99.90
19044;DHT22;9654;52.302;8.120;2023-08-06T15:50:38;19.00;99.90